createdAt,value
2016-04-25T00:00:59.750Z,1.95
2016-04-25T00:01:59.752Z,2
2016-04-25T00:02:59.738Z,2.01
2016-04-25T00:03:59.710Z,2.04
2016-04-25T00:04:59.683Z,2.12
2016-04-25T00:05:59.669Z,2.03
2016-04-25T00:06:59.640Z,2.03
2016-04-25T00:07:59.627Z,1.99
2016-04-25T00:08:59.614Z,2.04
2016-04-25T00:09:59.586Z,2.08
2016-04-25T00:10:59.574Z,2.08
2016-04-25T00:12:00.185Z,2.09
2016-04-25T00:13:00.187Z,2.09
2016-04-25T00:13:59.503Z,2.12
2016-04-25T00:14:59.490Z,2.07
2016-04-25T00:15:59.477Z,2.12
2016-04-25T00:16:59.465Z,2.03
2016-04-25T00:17:59.436Z,2.12
2016-04-25T00:18:59.406Z,2.09
2016-04-25T00:20:03.503Z,2.09
2016-04-25T00:20:59.382Z,2.04
2016-04-25T00:21:59.367Z,2.04
2016-04-25T00:22:59.345Z,2.08
2016-04-25T00:23:59.317Z,2.03
2016-04-25T00:24:59.320Z,2.09
2016-04-25T00:25:59.290Z,2.11
2016-04-25T00:26:59.747Z,2.11
2016-04-25T00:27:59.765Z,2.09
2016-04-25T00:28:59.236Z,2.07
2016-04-25T00:29:59.224Z,2.07
2016-04-25T00:30:59.195Z,2.08
2016-04-25T00:31:59.167Z,2.07
2016-04-25T00:32:58.998Z,2.08
2016-04-25T00:33:59.141Z,2.12
2016-04-25T00:34:59.112Z,2.03
2016-04-25T00:35:59.099Z,2
2016-04-25T00:36:59.071Z,2.04
2016-04-25T00:37:59.058Z,2.03
2016-04-25T00:38:59.045Z,1.97
2016-04-25T00:39:59.016Z,1.95
2016-04-25T00:40:59.003Z,1.93
2016-04-25T00:41:59.021Z,1.92
2016-04-25T00:42:58.759Z,1.97
2016-04-25T00:43:58.933Z,2.01
2016-04-25T00:44:58.921Z,1.99
2016-04-25T00:45:58.923Z,1.92
2016-04-25T00:46:58.880Z,2.01
2016-04-25T00:47:58.897Z,2.04
2016-04-25T00:48:58.853Z,2.04
2016-04-25T00:49:58.824Z,2.03
2016-04-25T00:50:58.812Z,2.03
2016-04-25T00:51:58.798Z,1.97
2016-04-25T00:52:58.786Z,2.04
2016-04-25T00:53:58.773Z,2.03
2016-04-25T00:54:58.729Z,1.97
2016-04-25T00:55:58.715Z,2.07
2016-04-25T00:56:58.547Z,1.93
2016-04-25T00:57:58.862Z,2.03
2016-04-25T00:58:58.662Z,2.04
2016-04-25T00:59:58.632Z,2
2016-04-25T01:00:58.650Z,2.08
2016-04-25T01:01:58.622Z,2.07
2016-04-25T01:02:58.579Z,2.04
2016-04-25T01:03:58.565Z,2.04
2016-04-25T01:04:58.553Z,2.07
2016-04-25T01:05:58.523Z,2.09
2016-04-25T01:06:58.511Z,2.08
2016-04-25T01:07:58.483Z,2.11
2016-04-25T01:08:58.470Z,2.03
2016-04-25T01:09:58.456Z,1.99
2016-04-25T01:10:58.427Z,2.04
2016-04-25T01:11:58.852Z,2.09
2016-04-25T01:12:58.246Z,2.07
2016-04-25T01:13:58.374Z,2.01
2016-04-25T01:14:58.376Z,1.9
2016-04-25T01:15:58.332Z,1.93
2016-04-25T01:16:58.335Z,2.08
2016-04-25T01:17:58.306Z,2.03
2016-04-25T01:18:58.293Z,1.99
2016-04-25T01:19:58.265Z,1.95
2016-04-25T01:20:58.235Z,1.97
2016-04-25T01:21:58.224Z,2.03
2016-04-25T01:22:58.226Z,2.01
2016-04-25T01:23:58.181Z,2
2016-04-25T01:24:58.168Z,1.99
2016-04-25T01:25:58.156Z,2.09
2016-04-25T01:26:58.124Z,2.01
2016-04-25T01:27:57.815Z,2.11
2016-04-25T01:28:58.099Z,2.09
2016-04-25T01:29:58.070Z,2.11
2016-04-25T01:30:58.088Z,2.08
2016-04-25T01:31:58.029Z,2.03
2016-04-25T01:32:58.031Z,2.04
2016-04-25T01:33:58.003Z,2.12
2016-04-25T01:34:57.974Z,2.15
2016-04-25T01:35:57.961Z,2.09
2016-04-25T01:36:57.933Z,2.18
2016-04-25T01:37:57.920Z,2.22
2016-04-25T01:38:58.047Z,2.18
2016-04-25T01:39:57.878Z,2.22
2016-04-25T01:40:57.865Z,2.28
2016-04-25T01:41:57.853Z,2.28
2016-04-25T01:42:58.089Z,2.19
2016-04-25T01:43:57.826Z,2.39
2016-04-25T01:44:57.782Z,2.28
2016-04-25T01:45:57.769Z,2.28
2016-04-25T01:46:57.756Z,2.3
2016-04-25T01:47:57.728Z,2.3
2016-04-25T01:48:57.715Z,2.28
2016-04-25T01:49:57.530Z,2.39
2016-04-25T01:50:57.674Z,2.32
2016-04-25T01:51:57.660Z,2.3
2016-04-25T01:52:57.647Z,2.36
2016-04-25T01:53:57.619Z,2.42
2016-04-25T01:54:57.591Z,2.42
2016-04-25T01:55:57.577Z,2.42
2016-04-25T01:56:57.549Z,2.44
2016-04-25T01:57:57.535Z,2.46
2016-04-25T01:58:57.523Z,2.42
2016-04-25T01:59:57.495Z,2.42
2016-04-25T02:00:57.481Z,2.37
2016-04-25T02:01:57.454Z,2.42
2016-04-25T02:02:57.456Z,2.33
2016-04-25T02:03:57.427Z,2.36
2016-04-25T02:04:57.398Z,2.48
2016-04-25T02:05:57.386Z,2.35
2016-04-25T02:06:57.373Z,2.3
2016-04-25T02:07:57.360Z,2.37
2016-04-25T02:08:57.347Z,2.28
2016-04-25T02:09:57.303Z,2.29
2016-04-25T02:10:57.289Z,2.28
2016-04-25T02:11:57.278Z,2.33
2016-04-25T02:12:57.717Z,2.37
2016-04-25T02:13:57.235Z,2.25
2016-04-25T02:14:57.222Z,2.22
2016-04-25T02:15:57.209Z,2.18
2016-04-25T02:16:57.181Z,2.22
2016-04-25T02:17:57.152Z,2.22
2016-04-25T02:18:57.139Z,2.19
2016-04-25T02:19:57.141Z,2.14
2016-04-25T02:20:57.113Z,2.15
2016-04-25T02:21:57.086Z,2.14
2016-04-25T02:22:57.072Z,2.07
2016-04-25T02:23:57.043Z,2.09
2016-04-25T02:24:57.030Z,2.08
2016-04-25T02:25:57.032Z,2.04
2016-04-25T02:26:57.021Z,2.03
2016-04-25T02:27:57.055Z,2.01
2016-04-25T02:28:56.947Z,2.04
2016-04-25T02:29:56.935Z,2.01
2016-04-25T02:30:56.921Z,2.04
2016-04-25T02:31:56.893Z,2
2016-04-25T02:32:56.880Z,1.92
2016-04-25T02:33:56.868Z,1.85
2016-04-25T02:34:56.840Z,1.9
2016-04-25T02:35:56.826Z,1.92
2016-04-25T02:36:56.812Z,2
2016-04-25T02:37:56.784Z,1.9
2016-04-25T02:38:56.770Z,2
2016-04-25T02:39:56.742Z,2
2016-04-25T02:40:56.762Z,1.82
2016-04-25T02:41:56.733Z,1.84
2016-04-25T02:42:56.970Z,1.84
2016-04-25T02:43:56.675Z,1.95
2016-04-25T02:44:56.647Z,1.93
2016-04-25T02:45:56.634Z,1.89
2016-04-25T02:46:56.606Z,1.84
2016-04-25T02:47:56.592Z,1.88
2016-04-25T02:48:56.580Z,1.9
2016-04-25T02:49:56.567Z,1.97
2016-04-25T02:50:56.538Z,1.95
2016-04-25T02:51:56.525Z,1.89
2016-04-25T02:52:56.497Z,1.88
2016-04-25T02:53:56.483Z,1.92
2016-04-25T02:54:56.471Z,1.92
2016-04-25T02:55:56.441Z,1.92
2016-04-25T02:56:56.430Z,1.95
2016-04-25T02:57:57.057Z,1.9
2016-04-25T02:58:56.388Z,1.92
2016-04-25T02:59:56.375Z,1.97
2016-04-25T03:00:56.346Z,1.9
2016-04-25T03:01:56.333Z,1.93
2016-04-25T03:02:56.320Z,2.01
2016-04-25T03:03:56.308Z,1.93
2016-04-25T03:04:56.279Z,1.92
2016-04-25T03:05:56.265Z,1.95
2016-04-25T03:06:56.238Z,1.99
2016-04-25T03:07:56.224Z,2
2016-04-25T03:08:56.195Z,2.03
2016-04-25T03:09:56.198Z,1.99
2016-04-25T03:10:56.186Z,2.01
2016-04-25T03:11:56.157Z,1.93
2016-04-25T03:12:56.816Z,1.93
2016-04-25T03:13:56.100Z,1.99
2016-04-25T03:14:56.087Z,1.88
2016-04-25T03:15:56.058Z,1.92
2016-04-25T03:16:56.045Z,2
2016-04-25T03:17:56.017Z,1.99
2016-04-25T03:18:56.019Z,1.92
2016-04-25T03:19:55.992Z,1.89
2016-04-25T03:20:55.963Z,1.92
2016-04-25T03:21:55.965Z,1.92
2016-04-25T03:22:55.936Z,2.01
2016-04-25T03:23:55.908Z,1.9
2016-04-25T03:24:55.894Z,2.03
2016-04-25T03:25:55.866Z,1.99
2016-04-25T03:26:55.697Z,1.99
2016-04-25T03:27:55.700Z,2.01
2016-04-25T03:28:55.827Z,2
2016-04-25T03:29:55.799Z,1.9
2016-04-25T03:30:55.785Z,2.03
2016-04-25T03:31:55.757Z,2
2016-04-25T03:32:55.746Z,1.99
2016-04-25T03:33:55.731Z,2.03
2016-04-25T03:34:55.704Z,2.09
2016-04-25T03:35:55.690Z,2.03
2016-04-25T03:36:55.677Z,2.09
2016-04-25T03:37:55.649Z,2.11
2016-04-25T03:38:55.620Z,2.15
2016-04-25T03:39:55.623Z,2.21
2016-04-25T03:40:55.609Z,2.15
2016-04-25T03:41:55.581Z,2.17
2016-04-25T03:42:55.725Z,2.17
2016-04-25T03:43:55.806Z,2.22
2016-04-25T03:44:55.511Z,2.25
2016-04-25T03:45:55.498Z,2.37
2016-04-25T03:46:55.470Z,2.29
2016-04-25T03:47:55.457Z,2.32
2016-04-25T03:48:55.444Z,2.37
2016-04-25T03:49:55.447Z,2.4
2016-04-25T03:50:55.403Z,2.35
2016-04-25T03:51:55.389Z,2.46
2016-04-25T03:52:55.361Z,2.48
2016-04-25T03:53:55.364Z,2.46
2016-04-25T03:54:55.335Z,2.46
2016-04-25T03:55:55.307Z,2.53
2016-04-25T03:56:55.294Z,2.53
2016-04-25T03:57:55.813Z,2.55
2016-04-25T03:58:55.174Z,2.5
2016-04-25T03:59:55.238Z,2.53
2016-04-25T04:00:55.226Z,2.42
2016-04-25T04:01:55.199Z,2.42
2016-04-25T04:02:55.185Z,2.48
2016-04-25T04:03:55.187Z,2.54
2016-04-25T04:04:55.143Z,2.44
2016-04-25T04:05:55.130Z,2.44
2016-04-25T04:06:55.118Z,2.51
2016-04-25T04:07:55.089Z,2.54
2016-04-25T04:08:55.076Z,2.48
2016-04-25T04:09:55.063Z,2.53
2016-04-25T04:10:55.035Z,2.39
2016-04-25T04:11:55.021Z,2.51
2016-04-25T04:12:54.867Z,2.47
2016-04-25T04:13:54.995Z,2.55
2016-04-25T04:14:54.968Z,2.51
2016-04-25T04:15:54.954Z,2.5
2016-04-25T04:16:54.926Z,2.44
2016-04-25T04:17:54.912Z,2.55
2016-04-25T04:18:54.728Z,2.5
2016-04-25T04:19:54.872Z,2.48
2016-04-25T04:20:54.842Z,2.54
2016-04-25T04:21:54.846Z,2.55
2016-04-25T04:22:54.817Z,2.6
2016-04-25T04:23:54.804Z,2.55
2016-04-25T04:24:54.775Z,2.6
2016-04-25T04:25:54.763Z,2.55
2016-04-25T04:26:54.733Z,2.64
2016-04-25T04:27:54.847Z,2.66
2016-04-25T04:28:55.317Z,2.55
2016-04-25T04:29:54.695Z,2.6
2016-04-25T04:30:54.666Z,2.68
2016-04-25T04:31:54.654Z,2.72
2016-04-25T04:32:54.624Z,2.66
2016-04-25T04:33:54.613Z,2.68
2016-04-25T04:34:54.583Z,2.73
2016-04-25T04:35:54.586Z,2.75
2016-04-25T04:36:54.573Z,2.84
2016-04-25T04:37:54.545Z,2.82
2016-04-25T04:38:54.516Z,2.89
2016-04-25T04:39:54.503Z,2.79
2016-04-25T04:40:54.490Z,2.82
2016-04-25T04:41:54.462Z,2.72
2016-04-25T04:42:56.168Z,2.89
2016-04-25T04:43:55.264Z,2.78
2016-04-25T04:44:54.423Z,2.84
2016-04-25T04:45:54.409Z,2.79
2016-04-25T04:46:54.382Z,2.89
2016-04-25T04:47:54.353Z,2.86
2016-04-25T04:48:54.356Z,2.94
2016-04-25T04:49:54.311Z,2.97
2016-04-25T04:50:54.314Z,2.89
2016-04-25T04:51:54.286Z,3.01
2016-04-25T04:52:54.273Z,3.02
2016-04-25T04:53:54.259Z,3.01
2016-04-25T04:54:54.231Z,3.12
2016-04-25T04:55:54.218Z,3.11
2016-04-25T04:56:54.189Z,3.12
2016-04-25T04:57:54.817Z,3.3
2016-04-25T04:58:55.366Z,3.26
2016-04-25T04:59:54.150Z,3.41
2016-04-25T05:00:54.122Z,3.55
2016-04-25T05:01:54.110Z,3.69
2016-04-25T05:02:54.112Z,3.77
2016-04-25T05:03:54.083Z,3.84
2016-04-25T05:04:54.071Z,3.77
2016-04-25T05:05:54.042Z,3.73
2016-04-25T05:06:54.013Z,3.93
2016-04-25T05:07:54.001Z,3.82
2016-04-25T05:08:53.987Z,3.96
2016-04-25T05:09:53.990Z,3.87
2016-04-25T05:10:53.962Z,3.93
2016-04-25T05:11:53.949Z,3.95
2016-04-25T05:12:53.956Z,3.96
2016-04-25T05:13:53.986Z,4.02
2016-04-25T05:14:54.019Z,4.1
2016-04-25T05:15:54.065Z,4.18
2016-04-25T05:16:54.080Z,4.24
2016-04-25T05:17:54.073Z,4.28
2016-04-25T05:18:54.076Z,4.24
2016-04-25T05:19:54.079Z,4.36
2016-04-25T05:20:54.067Z,4.39
2016-04-25T05:21:54.069Z,4.31
2016-04-25T05:22:54.063Z,4.34
2016-04-25T05:23:54.057Z,4.16
2016-04-25T05:24:54.050Z,4.18
2016-04-25T05:25:54.074Z,4.13
2016-04-25T05:26:54.019Z,4.09
2016-04-25T05:27:53.852Z,4.1
2016-04-25T05:28:54.764Z,4.14
2016-04-25T05:29:53.986Z,4.23
2016-04-25T05:30:53.977Z,4.18
2016-04-25T05:31:53.949Z,4.13
2016-04-25T05:32:53.937Z,4.16
2016-04-25T05:33:53.925Z,4.18
2016-04-25T05:34:53.913Z,4.21
2016-04-25T05:35:53.901Z,4.27
2016-04-25T05:36:53.888Z,4.27
2016-04-25T05:37:53.861Z,4.24
2016-04-25T05:38:53.863Z,4.16
2016-04-25T05:39:53.836Z,4.18
2016-04-25T05:40:53.823Z,4.16
2016-04-25T05:41:53.795Z,4.2
2016-04-25T05:42:53.813Z,4.17
2016-04-25T05:43:54.567Z,4.16
2016-04-25T05:44:53.756Z,4.21
2016-04-25T05:45:53.742Z,4.24
2016-04-25T05:46:53.730Z,4.35
2016-04-25T05:47:53.702Z,4.28
2016-04-25T05:48:53.673Z,4.32
2016-04-25T05:49:53.661Z,4.28
2016-04-25T05:50:53.647Z,4.24
2016-04-25T05:51:53.633Z,4.34
2016-04-25T05:52:53.622Z,4.38
2016-04-25T05:53:53.593Z,4.27
2016-04-25T05:54:53.579Z,4.42
2016-04-25T05:55:53.567Z,4.42
2016-04-25T05:56:53.569Z,4.46
2016-04-25T05:57:53.541Z,4.57
2016-04-25T05:58:53.544Z,4.64
2016-04-25T05:59:53.515Z,4.62
2016-04-25T06:00:53.502Z,4.63
2016-04-25T06:01:53.473Z,4.83
2016-04-25T06:02:53.461Z,4.91
2016-04-25T06:03:53.432Z,4.9
2016-04-25T06:04:53.418Z,4.89
2016-04-25T06:05:53.422Z,4.8
2016-04-25T06:06:53.409Z,4.77
2016-04-25T06:07:53.381Z,4.82
2016-04-25T06:08:53.352Z,4.75
2016-04-25T06:09:53.339Z,4.9
2016-04-25T06:10:53.326Z,4.91
2016-04-25T06:11:53.312Z,4.99
2016-04-25T06:12:52.550Z,5.07
2016-04-25T06:13:53.084Z,5.22
2016-04-25T06:14:53.275Z,5.21
2016-04-25T06:15:53.245Z,5.24
2016-04-25T06:16:53.233Z,5.33
2016-04-25T06:17:53.220Z,5.37
2016-04-25T06:18:53.206Z,5.4
2016-04-25T06:19:53.178Z,5.36
2016-04-25T06:20:53.166Z,5.3
2016-04-25T06:21:53.168Z,5.45
2016-04-25T06:22:53.140Z,5.44
2016-04-25T06:23:53.112Z,5.48
2016-04-25T06:24:53.098Z,5.52
2016-04-25T06:25:53.086Z,5.48
2016-04-25T06:26:53.089Z,5.6
2016-04-25T06:27:53.248Z,5.66
2016-04-25T06:28:52.906Z,5.76
2016-04-25T06:29:53.284Z,5.87
2016-04-25T06:30:53.022Z,5.87
2016-04-25T06:31:53.008Z,5.69
2016-04-25T06:32:52.995Z,5.73
2016-04-25T06:33:52.983Z,5.86
2016-04-25T06:34:52.954Z,5.97
2016-04-25T06:35:52.942Z,6.09
2016-04-25T06:36:52.928Z,6.09
2016-04-25T06:37:52.915Z,6.16
2016-04-25T06:38:52.903Z,6.28
2016-04-25T06:39:52.888Z,6.6
2016-04-25T06:40:52.877Z,6.73
2016-04-25T06:41:52.863Z,6.75
2016-04-25T06:42:52.851Z,6.75
2016-04-25T06:43:53.087Z,7.03
2016-04-25T06:44:52.669Z,7.32
2016-04-25T06:45:52.812Z,7.55
2016-04-25T06:46:52.799Z,7.83
2016-04-25T06:47:52.785Z,7.72
2016-04-25T06:48:52.774Z,7.61
2016-04-25T06:49:52.759Z,7.88
2016-04-25T06:50:52.748Z,8.06
2016-04-25T06:51:52.734Z,8.09
2016-04-25T06:52:52.721Z,8.07
2016-04-25T06:53:52.708Z,8.3
2016-04-25T06:54:52.712Z,8.56
2016-04-25T06:55:52.698Z,8.64
2016-04-25T06:56:52.670Z,8.66
2016-04-25T06:57:52.703Z,8.81
2016-04-25T06:58:52.722Z,8.68
2016-04-25T06:59:52.897Z,8.7
2016-04-25T07:00:52.634Z,8.5
2016-04-25T07:01:52.636Z,8.6
2016-04-25T07:02:52.622Z,8.77
2016-04-25T07:03:52.610Z,8.91
2016-04-25T07:04:52.581Z,8.85
2016-04-25T07:05:52.584Z,8.92
2016-04-25T07:06:52.572Z,9.06
2016-04-25T07:07:52.558Z,8.95
2016-04-25T07:08:52.546Z,8.96
2016-04-25T07:09:52.533Z,8.92
2016-04-25T07:10:52.519Z,8.86
2016-04-25T07:11:52.522Z,8.68
2016-04-25T07:12:52.494Z,8.84
2016-04-25T07:13:51.902Z,8.98
2016-04-25T07:14:52.499Z,9.1
2016-04-25T07:15:52.471Z,8.92
2016-04-25T07:16:52.457Z,8.84
2016-04-25T07:17:52.445Z,8.6
2016-04-25T07:18:52.432Z,8.45
2016-04-25T07:19:52.419Z,8.5
2016-04-25T07:20:52.406Z,8.49
2016-04-25T07:21:52.409Z,8.33
2016-04-25T07:22:52.379Z,8.34
2016-04-25T07:23:52.367Z,8.31
2016-04-25T07:24:52.370Z,8.41
2016-04-25T07:25:52.342Z,8.56
2016-04-25T07:26:52.328Z,8.55
2016-04-25T07:27:52.315Z,8.28
2016-04-25T07:28:53.365Z,8.35
2016-04-25T07:29:52.305Z,8.56
2016-04-25T07:30:52.292Z,8.64
2016-04-25T07:31:52.279Z,8.76
2016-04-25T07:32:52.267Z,8.81
2016-04-25T07:33:52.253Z,8.93
2016-04-25T07:34:52.241Z,8.96
2016-04-25T07:35:52.228Z,9.28
2016-04-25T07:36:52.230Z,9.41
2016-04-25T07:37:52.202Z,9.65
2016-04-25T07:38:52.219Z,9.86
2016-04-25T07:39:52.192Z,9.98
2016-04-25T07:40:52.178Z,9.98
2016-04-25T07:41:52.181Z,10.19
2016-04-25T07:42:52.152Z,10.6
2016-04-25T07:43:52.015Z,10.47
2016-04-25T07:44:52.142Z,10.69
2016-04-25T07:45:52.130Z,10.87
2016-04-25T07:46:52.179Z,11.04
2016-04-25T07:47:52.385Z,10.87
2016-04-25T07:48:52.106Z,10.78
2016-04-25T07:49:52.093Z,11.07
2016-04-25T07:50:52.096Z,11.33
2016-04-25T07:51:52.098Z,11.57
2016-04-25T07:52:52.071Z,11.96
2016-04-25T07:53:52.073Z,12.19
2016-04-25T07:54:52.045Z,12.68
2016-04-25T07:55:52.048Z,12.9
2016-04-25T07:56:52.034Z,12.52
2016-04-25T07:57:52.036Z,12.16
2016-04-25T07:58:52.493Z,12.68
2016-04-25T07:59:52.136Z,12.37
2016-04-25T08:00:52.014Z,12.13
2016-04-25T08:01:52.001Z,11.96
2016-04-25T08:02:52.144Z,12.16
2016-04-25T08:03:52.053Z,12.44
2016-04-25T08:04:52.009Z,12.8
2016-04-25T08:05:52.011Z,12.83
2016-04-25T08:06:51.983Z,12.89
2016-04-25T08:07:51.986Z,12.6
2016-04-25T08:08:51.988Z,12.64
2016-04-25T08:09:52.022Z,12.8
2016-04-25T08:10:51.963Z,13.16
2016-04-25T08:11:51.997Z,13.38
2016-04-25T08:12:51.961Z,13.44
2016-04-25T08:13:52.136Z,13.79
2016-04-25T08:14:51.936Z,13.93
2016-04-25T08:15:51.922Z,14.02
2016-04-25T08:16:51.940Z,14.17
2016-04-25T08:17:51.928Z,14.54
2016-04-25T08:18:51.930Z,15.06
2016-04-25T08:19:51.902Z,14.68
2016-04-25T08:20:51.904Z,14.6
2016-04-25T08:21:51.922Z,14.32
2016-04-25T08:22:51.895Z,14.25
2016-04-25T08:23:51.898Z,13.96
2016-04-25T08:24:51.900Z,13.82
2016-04-25T08:25:51.872Z,13.78
2016-04-25T08:26:51.875Z,14.15
2016-04-25T08:27:51.908Z,14.48
2016-04-25T08:28:51.708Z,14.7
2016-04-25T08:29:51.867Z,14.65
2016-04-25T08:30:51.854Z,14.47
2016-04-25T08:31:51.856Z,14.43
2016-04-25T08:32:51.859Z,14.33
2016-04-25T08:33:51.846Z,14.21
2016-04-25T08:34:51.834Z,13.42
2016-04-25T08:35:51.852Z,13.42
2016-04-25T08:36:51.839Z,13.31
2016-04-25T08:37:51.841Z,13.04
2016-04-25T08:38:51.813Z,13.49
2016-04-25T08:39:51.816Z,13.87
2016-04-25T08:40:51.838Z,13.86
2016-04-25T08:41:51.795Z,13.52
2016-04-25T08:42:51.063Z,13.41
2016-04-25T08:43:54.878Z,13.33
2016-04-25T08:44:51.788Z,13.22
2016-04-25T08:45:51.774Z,13.16
2016-04-25T08:46:51.762Z,13.05
2016-04-25T08:47:51.764Z,12.86
2016-04-25T08:48:51.751Z,12.9
2016-04-25T08:49:51.754Z,12.83
2016-04-25T08:50:51.881Z,12.71
2016-04-25T08:51:51.743Z,12.5
2016-04-25T08:52:51.731Z,12.32
2016-04-25T08:53:51.733Z,12.5
2016-04-25T08:54:51.720Z,12.65
2016-04-25T08:55:51.708Z,12.76
2016-04-25T08:56:51.772Z,12.86
2016-04-25T08:57:51.697Z,12.93
2016-04-25T08:58:52.122Z,13.04
2016-04-25T08:59:51.672Z,13.16
2016-04-25T09:00:51.689Z,13.18
2016-04-25T09:01:51.661Z,13.44
2016-04-25T09:02:51.679Z,13.05
2016-04-25T09:03:51.650Z,12.8
2016-04-25T09:04:51.638Z,13
2016-04-25T09:05:51.750Z,13.22
2016-04-25T09:06:51.643Z,13.35
2016-04-25T09:07:51.630Z,12.77
2016-04-25T09:08:51.618Z,12.8
2016-04-25T09:09:51.621Z,12.61
2016-04-25T09:10:51.607Z,12.67
2016-04-25T09:11:51.594Z,12.55
2016-04-25T09:12:51.596Z,12.55
2016-04-25T09:13:51.677Z,12.67
2016-04-25T09:14:51.618Z,12.22
2016-04-25T09:15:51.573Z,12.21
2016-04-25T09:16:51.580Z,12.22
2016-04-25T09:17:51.567Z,12.28
2016-04-25T09:18:51.539Z,12.25
2016-04-25T09:19:51.541Z,12.42
2016-04-25T09:20:51.529Z,12.55
2016-04-25T09:21:51.532Z,12.85
2016-04-25T09:22:51.597Z,12.97
2016-04-25T09:23:51.505Z,13.01
2016-04-25T09:24:51.633Z,12.76
2016-04-25T09:25:51.495Z,13.04
2016-04-25T09:26:51.482Z,12.98
2016-04-25T09:27:51.485Z,12.61
2016-04-25T09:28:51.504Z,12.32
2016-04-25T09:29:51.818Z,12.6
2016-04-25T09:30:51.446Z,12.9
2016-04-25T09:31:51.448Z,12.87
2016-04-25T09:32:51.437Z,12.72
2016-04-25T09:33:51.439Z,12.6
2016-04-25T09:34:51.441Z,12.31
2016-04-25T09:35:51.428Z,12.25
2016-04-25T09:36:51.415Z,12.19
2016-04-25T09:37:51.403Z,12.19
2016-04-25T09:38:51.389Z,11.87
2016-04-25T09:39:51.392Z,12.04
2016-04-25T09:40:51.379Z,11.63
2016-04-25T09:41:51.397Z,11.72
2016-04-25T09:42:51.416Z,11.72
2016-04-25T09:43:52.325Z,11.95
2016-04-25T09:44:51.561Z,11.87
2016-04-25T09:45:51.346Z,11.9
2016-04-25T09:46:51.349Z,11.93
2016-04-25T09:47:51.320Z,12.09
2016-04-25T09:48:51.322Z,12.09
2016-04-25T09:49:51.310Z,12.28
2016-04-25T09:50:51.375Z,12.53
2016-04-25T09:51:51.299Z,12.67
2016-04-25T09:52:51.286Z,12.24
2016-04-25T09:53:51.273Z,12.19
2016-04-25T09:54:51.260Z,11.87
2016-04-25T09:55:51.263Z,11.69
2016-04-25T09:56:51.329Z,11.63
2016-04-25T09:57:51.253Z,11.85
2016-04-25T09:58:51.224Z,11.73
2016-04-25T09:59:51.227Z,12
2016-04-25T10:00:51.230Z,12.01
2016-04-25T10:01:51.217Z,12
2016-04-25T10:02:51.235Z,11.77
2016-04-25T10:03:51.190Z,11.84
2016-04-25T10:04:51.178Z,11.83
2016-04-25T10:05:51.181Z,11.88
2016-04-25T10:06:51.168Z,11.84
2016-04-25T10:07:51.170Z,11.84
2016-04-25T10:08:51.158Z,11.7
2016-04-25T10:09:51.145Z,11.58
2016-04-25T10:10:51.132Z,11.62
2016-04-25T10:11:51.103Z,11.51
2016-04-25T10:12:51.121Z,11.75
2016-04-25T10:13:51.125Z,11.75
2016-04-25T10:14:51.206Z,11.69
2016-04-25T10:15:51.067Z,11.62
2016-04-25T10:16:51.055Z,11.72
2016-04-25T10:17:51.088Z,12
2016-04-25T10:18:51.060Z,12.04
2016-04-25T10:19:51.047Z,12.16
2016-04-25T10:20:51.066Z,11.93
2016-04-25T10:21:51.036Z,11.95
2016-04-25T10:22:50.991Z,11.88
2016-04-25T10:23:51.026Z,11.9
2016-04-25T10:24:50.982Z,11.87
2016-04-25T10:25:50.985Z,11.83
2016-04-25T10:26:50.957Z,11.72
2016-04-25T10:27:50.959Z,11.58
2016-04-25T10:28:50.837Z,11.32
2016-04-25T10:29:51.011Z,11.21
2016-04-25T10:30:51.014Z,11.11
2016-04-25T10:31:50.960Z,11
2016-04-25T10:32:50.743Z,10.89
2016-04-25T10:33:50.777Z,10.63
2016-04-25T10:34:50.894Z,10.66
2016-04-25T10:35:50.887Z,10.83
2016-04-25T10:36:50.967Z,10.82
2016-04-25T10:37:50.861Z,10.87
2016-04-25T10:38:50.864Z,10.97
2016-04-25T10:39:50.835Z,10.99
2016-04-25T10:40:50.823Z,11.07
2016-04-25T10:41:50.872Z,10.99
2016-04-25T10:42:50.795Z,11.01
2016-04-25T10:43:51.455Z,10.9
2016-04-25T10:44:50.786Z,10.9
2016-04-25T10:45:50.773Z,10.9
2016-04-25T10:46:50.791Z,11.07
2016-04-25T10:47:50.778Z,11.08
2016-04-25T10:48:50.734Z,11.15
2016-04-25T10:49:50.737Z,11.11
2016-04-25T10:50:50.771Z,11.01
2016-04-25T10:51:50.695Z,10.96
2016-04-25T10:52:50.729Z,10.9
2016-04-25T10:53:50.716Z,10.83
2016-04-25T10:54:50.687Z,10.97
2016-04-25T10:55:50.753Z,10.96
2016-04-25T10:56:50.662Z,10.79
2016-04-25T10:57:50.649Z,10.83
2016-04-25T10:58:51.010Z,10.78
2016-04-25T10:59:51.436Z,10.72
2016-04-25T11:00:50.626Z,10.63
2016-04-25T11:01:50.426Z,10.54
2016-04-25T11:02:50.599Z,10.49
2016-04-25T11:03:50.571Z,10.32
2016-04-25T11:04:50.559Z,10.53
2016-04-25T11:05:50.545Z,10.51
2016-04-25T11:06:50.532Z,10.63
2016-04-25T11:07:50.520Z,10.66
2016-04-25T11:08:50.507Z,10.79
2016-04-25T11:09:50.493Z,10.83
2016-04-25T11:10:50.481Z,10.83
2016-04-25T11:11:50.499Z,10.69
2016-04-25T11:12:50.470Z,10.56
2016-04-25T11:13:50.207Z,10.64
2016-04-25T11:14:50.992Z,10.83
2016-04-25T11:15:50.431Z,10.87
2016-04-25T11:16:50.419Z,11.16
2016-04-25T11:17:50.406Z,11.16
2016-04-25T11:18:50.393Z,11.26
2016-04-25T11:19:50.395Z,11.47
2016-04-25T11:20:50.367Z,11.72
2016-04-25T11:21:50.370Z,11.88
2016-04-25T11:22:50.372Z,12.28
2016-04-25T11:23:50.344Z,12.31
2016-04-25T11:24:50.330Z,12.28
2016-04-25T11:25:50.349Z,12.57
2016-04-25T11:26:50.321Z,12.46
2016-04-25T11:27:50.324Z,12.44
2016-04-25T11:28:50.405Z,12.46
2016-04-25T11:29:50.782Z,12.43
2016-04-25T11:30:50.269Z,12.16
2016-04-25T11:31:50.257Z,12.21
2016-04-25T11:32:50.259Z,12.29
2016-04-25T11:33:50.246Z,12.31
2016-04-25T11:34:50.232Z,12.39
2016-04-25T11:35:50.235Z,12.43
2016-04-25T11:36:50.520Z,12.32
2016-04-25T11:37:50.225Z,12.28
2016-04-25T11:38:50.196Z,12.37
2016-04-25T11:39:50.199Z,12.28
2016-04-25T11:40:50.280Z,11.96
2016-04-25T11:41:50.173Z,11.73
2016-04-25T11:42:50.161Z,11.85
2016-04-25T11:43:51.694Z,11.77
2016-04-25T11:44:50.275Z,11.87
2016-04-25T11:45:50.137Z,11.77
2016-04-25T11:46:50.125Z,11.66
2016-04-25T11:47:50.132Z,11.65
2016-04-25T11:48:50.124Z,11.67
2016-04-25T11:49:50.002Z,11.75
2016-04-25T11:50:50.099Z,11.76
2016-04-25T11:51:50.101Z,11.85
2016-04-25T11:52:50.077Z,11.75
2016-04-25T11:53:50.064Z,11.16
2016-04-25T11:54:50.051Z,11.22
2016-04-25T11:55:50.038Z,11.19
2016-04-25T11:56:50.026Z,11.24
2016-04-25T11:57:50.029Z,11.19
2016-04-25T11:58:49.906Z,11.03
2016-04-25T11:59:50.768Z,11.09
2016-04-25T12:00:49.973Z,11.22
2016-04-25T12:01:49.976Z,10.79
2016-04-25T12:02:49.979Z,10.6
2016-04-25T12:03:49.951Z,10.87
2016-04-25T12:04:49.937Z,10.85
2016-04-25T12:05:49.925Z,10.82
2016-04-25T12:06:49.927Z,10.81
2016-04-25T12:07:49.914Z,10.85
2016-04-25T12:08:49.901Z,10.38
2016-04-25T12:09:49.904Z,10.41
2016-04-25T12:10:49.875Z,10.6
2016-04-25T12:11:49.863Z,10.75
2016-04-25T12:12:49.850Z,10.81
2016-04-25T12:13:50.586Z,10.54
2016-04-25T12:14:49.714Z,10.66
2016-04-25T12:15:49.810Z,10.69
2016-04-25T12:16:49.813Z,10.66
2016-04-25T12:17:49.800Z,10.67
2016-04-25T12:18:49.803Z,10.93
2016-04-25T12:19:49.775Z,11.07
2016-04-25T12:20:49.762Z,11.27
2016-04-25T12:21:49.749Z,11.42
2016-04-25T12:22:49.768Z,11.26
2016-04-25T12:23:49.738Z,11.24
2016-04-25T12:24:49.710Z,11.15
2016-04-25T12:25:49.713Z,11.26
2016-04-25T12:26:49.699Z,10.99
2016-04-25T12:27:49.687Z,10.99
2016-04-25T12:28:49.690Z,10.87
2016-04-25T12:29:48.927Z,10.87
2016-04-25T12:30:49.664Z,11.11
2016-04-25T12:31:49.651Z,11.21
2016-04-25T12:32:49.654Z,10.89
2016-04-25T12:33:49.625Z,10.75
2016-04-25T12:34:49.628Z,10.82
2016-04-25T12:35:49.630Z,10.74
2016-04-25T12:36:49.586Z,10.72
2016-04-25T12:37:49.604Z,10.75
2016-04-25T12:38:49.575Z,10.79
2016-04-25T12:39:49.563Z,10.69
2016-04-25T12:40:49.550Z,10.61
2016-04-25T12:41:49.553Z,10.42
2016-04-25T12:42:49.524Z,10.32
2016-04-25T12:43:49.527Z,10.32
2016-04-25T12:44:49.905Z,10.05
2016-04-25T12:45:49.500Z,10.02
2016-04-25T12:46:49.489Z,10.05
2016-04-25T12:47:49.460Z,9.94
2016-04-25T12:48:49.446Z,9.95
2016-04-25T12:49:49.606Z,9.94
2016-04-25T12:50:49.436Z,9.84
2016-04-25T12:51:49.423Z,9.72
2016-04-25T12:52:49.410Z,9.5
2016-04-25T12:53:49.397Z,9.68
2016-04-25T12:54:49.368Z,9.66
2016-04-25T12:55:49.372Z,9.66
2016-04-25T12:56:49.363Z,9.41
2016-04-25T12:57:49.351Z,9.47
2016-04-25T12:58:49.323Z,9.29
2016-04-25T12:59:49.059Z,9.17
2016-04-25T13:00:49.312Z,9.11
2016-04-25T13:01:49.299Z,9.11
2016-04-25T13:02:49.286Z,8.95
2016-04-25T13:03:49.273Z,8.95
2016-04-25T13:04:49.260Z,8.95
2016-04-25T13:05:49.278Z,8.89
2016-04-25T13:06:49.219Z,8.93
2016-04-25T13:07:49.050Z,8.84
2016-04-25T13:08:49.193Z,8.89
2016-04-25T13:09:49.180Z,9.01
2016-04-25T13:10:49.167Z,8.89
2016-04-25T13:11:49.154Z,8.84
2016-04-25T13:12:49.156Z,8.84